sensor_id;sensor_type;location;lat;lon;timestamp;pressure;altitude;pressure_sealevel;temperature;humidity
7748;BME280;3918;42.564;23.164;2023-05-02T04:01:07;-11650.84;;;-142.29;100.00
7748;BME280;3918;42.564;23.164;2023-05-02T04:03:38;-11650.84;;;-142.29;100.00
7748;BME280;3918;42.564;23.164;2023-05-02T04:06:05;-11650.84;;;-142.29;100.00
7748;BME280;3918;42.564;23.164;2023-05-02T04:08:32;-11650.84;;;-142.29;100.00
7748;BME280;3918;42.564;23.164;2023-05-02T04:10:59;-11650.84;;;-142.29;100.00
7748;BME280;3918;42.564;23.164;2023-05-02T04:13:26;-11650.84;;;-142.29;100.00
7748;BME280;3918;42.564;23.164;2023-05-02T04:15:53;-11650.84;;;-142.29;100.00
7748;BME280;3918;42.564;23.164;2023-05-02T04:18:22;-11650.84;;;-142.29;100.00
7748;BME280;3918;42.564;23.164;2023-05-02T04:20:49;-11650.84;;;-142.29;100.00
7748;BME280;3918;42.564;23.164;2023-05-02T04:23:16;-11650.84;;;-142.29;100.00
7748;BME280;3918;42.564;23.164;2023-05-02T04:25:50;-11650.84;;;-142.29;100.00
7748;BME280;3918;42.564;23.164;2023-05-02T04:28:17;-11650.84;;;-142.29;86.47
7748;BME280;3918;42.564;23.164;2023-05-02T04:30:44;-11650.84;;;-142.29;68.59
7748;BME280;3918;42.564;23.164;2023-05-02T04:33:11;-11650.84;;;-142.29;53.63
7748;BME280;3918;42.564;23.164;2023-05-02T04:35:40;-11650.84;;;-142.29;44.84
7748;BME280;3918;42.564;23.164;2023-05-02T04:38:07;-11650.84;;;-142.29;43.67
7748;BME280;3918;42.564;23.164;2023-05-02T04:40:34;-11650.84;;;-142.29;42.29
7748;BME280;3918;42.564;23.164;2023-05-02T04:43:01;-11650.84;;;-142.29;40.48
7748;BME280;3918;42.564;23.164;2023-05-02T04:45:28;-11650.84;;;-142.29;39.17
7748;BME280;3918;42.564;23.164;2023-05-02T04:47:55;-11650.84;;;-142.29;38.33
7748;BME280;3918;42.564;23.164;2023-05-02T04:50:22;-11650.84;;;-142.29;37.87
7748;BME280;3918;42.564;23.164;2023-05-02T04:52:50;-11650.84;;;-142.29;38.79
7748;BME280;3918;42.564;23.164;2023-05-02T04:55:18;-11650.84;;;-142.29;38.38
7748;BME280;3918;42.564;23.164;2023-05-02T04:57:44;-11650.84;;;-142.29;37.88
7748;BME280;3918;42.564;23.164;2023-05-02T05:00:12;-11650.84;;;-142.29;36.88
7748;BME280;3918;42.564;23.164;2023-05-02T05:02:39;-11650.84;;;-142.29;37.76
7748;BME280;3918;42.564;23.164;2023-05-02T05:05:07;-11650.84;;;-142.29;37.87
7748;BME280;3918;42.564;23.164;2023-05-02T05:07:34;-11650.84;;;-142.29;37.19
7748;BME280;3918;42.564;23.164;2023-05-02T05:10:02;-11650.84;;;-142.29;37.33
7748;BME280;3918;42.564;23.164;2023-05-02T05:12:29;-11650.84;;;-142.29;36.81
7748;BME280;3918;42.564;23.164;2023-05-02T05:14:56;-11650.84;;;-142.29;37.48
7748;BME280;3918;42.564;23.164;2023-05-02T05:17:23;-11650.84;;;-142.29;36.66
7748;BME280;3918;42.564;23.164;2023-05-02T05:19:50;-11650.84;;;-142.29;36.35
7748;BME280;3918;42.564;23.164;2023-05-02T05:22:16;-11650.84;;;-142.29;34.93
7748;BME280;3918;42.564;23.164;2023-05-02T05:24:50;-11650.84;;;-142.29;34.71
7748;BME280;3918;42.564;23.164;2023-05-02T05:27:18;-11650.84;;;-142.29;34.34
7748;BME280;3918;42.564;23.164;2023-05-02T05:29:45;-11650.84;;;-142.29;33.88
7748;BME280;3918;42.564;23.164;2023-05-02T05:32:12;-11650.84;;;-142.29;34.97
7748;BME280;3918;42.564;23.164;2023-05-02T05:34:39;-11650.84;;;-142.29;34.54
7748;BME280;3918;42.564;23.164;2023-05-02T05:37:06;-11650.84;;;-142.29;35.17
7748;BME280;3918;42.564;23.164;2023-05-02T05:39:33;-11650.84;;;-142.29;35.45
7748;BME280;3918;42.564;23.164;2023-05-02T05:42:00;-11650.84;;;-142.29;34.98
7748;BME280;3918;42.564;23.164;2023-05-02T05:44:29;-11650.84;;;-142.29;34.80
7748;BME280;3918;42.564;23.164;2023-05-02T05:46:56;-11650.84;;;-142.29;32.67
7748;BME280;3918;42.564;23.164;2023-05-02T05:49:23;-11650.84;;;-142.29;32.78
7748;BME280;3918;42.564;23.164;2023-05-02T05:51:50;-11650.84;;;-142.29;33.16
7748;BME280;3918;42.564;23.164;2023-05-02T05:54:17;-11650.84;;;-142.29;33.05
7748;BME280;3918;42.564;23.164;2023-05-02T05:56:44;-11650.84;;;-142.29;32.32
7748;BME280;3918;42.564;23.164;2023-05-02T05:59:11;-11650.84;;;-142.29;31.73
7748;BME280;3918;42.564;23.164;2023-05-02T06:01:41;-11650.84;;;-142.29;32.54
7748;BME280;3918;42.564;23.164;2023-05-02T06:04:08;-11650.84;;;-142.29;32.41
7748;BME280;3918;42.564;23.164;2023-05-02T06:06:35;-11650.84;;;-142.29;33.88
7748;BME280;3918;42.564;23.164;2023-05-02T06:09:02;-11650.84;;;-142.29;34.19
7748;BME280;3918;42.564;23.164;2023-05-02T06:11:29;-11650.84;;;-142.29;34.70
7748;BME280;3918;42.564;23.164;2023-05-02T06:13:56;-11650.84;;;-142.29;32.97
7748;BME280;3918;42.564;23.164;2023-05-02T06:16:23;-11650.84;;;-142.29;34.08
7748;BME280;3918;42.564;23.164;2023-05-02T06:18:51;-11650.84;;;-142.29;33.60
7748;BME280;3918;42.564;23.164;2023-05-02T06:21:18;-11650.84;;;-142.29;33.46
7748;BME280;3918;42.564;23.164;2023-05-02T06:23:45;-11650.84;;;-142.29;32.56
7748;BME280;3918;42.564;23.164;2023-05-02T06:26:12;-11650.84;;;-142.29;32.15
7748;BME280;3918;42.564;23.164;2023-05-02T06:28:39;-11650.84;;;-142.29;32.24
7748;BME280;3918;42.564;23.164;2023-05-02T06:31:06;-11650.84;;;-142.29;32.60
7748;BME280;3918;42.564;23.164;2023-05-02T06:33:33;-11650.84;;;-142.29;32.48
7748;BME280;3918;42.564;23.164;2023-05-02T06:36:01;-11650.84;;;-142.29;31.97
7748;BME280;3918;42.564;23.164;2023-05-02T06:38:28;-11650.84;;;-142.29;31.84
7748;BME280;3918;42.564;23.164;2023-05-02T06:40:55;-11650.84;;;-142.29;31.77
7748;BME280;3918;42.564;23.164;2023-05-02T06:43:22;-11650.84;;;-142.29;31.34
7748;BME280;3918;42.564;23.164;2023-05-02T06:45:51;-11650.84;;;-142.29;31.29
7748;BME280;3918;42.564;23.164;2023-05-02T06:48:19;-11650.84;;;-142.29;31.19
7748;BME280;3918;42.564;23.164;2023-05-02T06:50:46;-11650.84;;;-142.29;32.62
7748;BME280;3918;42.564;23.164;2023-05-02T06:53:14;-11650.84;;;-142.29;33.92
7748;BME280;3918;42.564;23.164;2023-05-02T06:55:41;-11650.84;;;-142.29;34.55
7748;BME280;3918;42.564;23.164;2023-05-02T06:58:08;-11650.84;;;-142.29;35.29
7748;BME280;3918;42.564;23.164;2023-05-02T07:00:35;-11650.84;;;-142.29;34.70
7748;BME280;3918;42.564;23.164;2023-05-02T07:03:02;-11650.84;;;-142.29;34.38
7748;BME280;3918;42.564;23.164;2023-05-02T07:05:29;-11650.84;;;-142.29;33.62
7748;BME280;3918;42.564;23.164;2023-05-02T07:07:56;-11650.84;;;-142.29;32.02
7748;BME280;3918;42.564;23.164;2023-05-02T07:10:25;-11650.84;;;-142.29;30.78
7748;BME280;3918;42.564;23.164;2023-05-02T07:12:52;-11650.84;;;-142.29;30.74
7748;BME280;3918;42.564;23.164;2023-05-02T07:15:19;-11650.84;;;-142.29;30.39
7748;BME280;3918;42.564;23.164;2023-05-02T07:17:45;-11650.84;;;-142.29;30.39
7748;BME280;3918;42.564;23.164;2023-05-02T07:20:14;-11650.84;;;-142.29;31.80
7748;BME280;3918;42.564;23.164;2023-05-02T07:22:41;-11650.84;;;-142.29;30.04
7748;BME280;3918;42.564;23.164;2023-05-02T07:25:08;-11650.84;;;-142.29;30.46
7748;BME280;3918;42.564;23.164;2023-05-02T07:27:36;-11650.84;;;-142.29;28.82
7748;BME280;3918;42.564;23.164;2023-05-02T07:30:04;-11650.84;;;-142.29;30.32
7748;BME280;3918;42.564;23.164;2023-05-02T07:32:31;-11650.84;;;-142.29;31.13
7748;BME280;3918;42.564;23.164;2023-05-02T07:34:58;-11650.84;;;-142.29;30.95
7748;BME280;3918;42.564;23.164;2023-05-02T07:37:25;-11650.84;;;-142.29;29.39
7748;BME280;3918;42.564;23.164;2023-05-02T07:39:51;-11650.84;;;-142.29;29.69
7748;BME280;3918;42.564;23.164;2023-05-02T07:42:18;-11650.84;;;-142.29;30.18
7748;BME280;3918;42.564;23.164;2023-05-02T07:44:47;-11650.84;;;-142.29;29.82
7748;BME280;3918;42.564;23.164;2023-05-02T07:47:14;-11650.84;;;-142.29;29.59
7748;BME280;3918;42.564;23.164;2023-05-02T07:49:40;-11650.84;;;-142.29;30.37
7748;BME280;3918;42.564;23.164;2023-05-02T07:52:07;-11650.84;;;-142.29;31.69
7748;BME280;3918;42.564;23.164;2023-05-02T07:54:34;-11650.84;;;-142.29;32.66
7748;BME280;3918;42.564;23.164;2023-05-02T07:57:01;-11650.84;;;-142.29;33.00
7748;BME280;3918;42.564;23.164;2023-05-02T07:59:29;-11650.84;;;-142.29;32.97
7748;BME280;3918;42.564;23.164;2023-05-02T08:01:58;-11650.84;;;-142.29;34.79
7748;BME280;3918;42.564;23.164;2023-05-02T08:04:25;-11650.84;;;-142.29;36.16
7748;BME280;3918;42.564;23.164;2023-05-02T08:06:52;-11650.84;;;-142.29;35.03
7748;BME280;3918;42.564;23.164;2023-05-02T08:09:20;-11650.84;;;-142.29;33.82
7748;BME280;3918;42.564;23.164;2023-05-02T08:11:47;-11650.84;;;-142.29;35.98
7748;BME280;3918;42.564;23.164;2023-05-02T08:14:14;-11650.84;;;-142.29;36.53
7748;BME280;3918;42.564;23.164;2023-05-02T08:16:42;-11650.84;;;-142.29;36.70
7748;BME280;3918;42.564;23.164;2023-05-02T08:19:10;-11650.84;;;-142.29;38.44
7748;BME280;3918;42.564;23.164;2023-05-02T08:21:37;-11650.84;;;-142.29;37.02
7748;BME280;3918;42.564;23.164;2023-05-02T08:24:04;-11650.84;;;-142.29;34.58
7748;BME280;3918;42.564;23.164;2023-05-02T08:26:31;-11650.84;;;-142.29;34.27
7748;BME280;3918;42.564;23.164;2023-05-02T08:28:58;-11650.84;;;-142.29;33.73
7748;BME280;3918;42.564;23.164;2023-05-02T08:31:28;-11650.84;;;-142.29;33.37
7748;BME280;3918;42.564;23.164;2023-05-02T08:33:55;-11650.84;;;-142.29;33.99
7748;BME280;3918;42.564;23.164;2023-05-02T08:36:23;-11650.84;;;-142.29;35.74
7748;BME280;3918;42.564;23.164;2023-05-02T08:38:53;-11650.84;;;-142.29;36.50
7748;BME280;3918;42.564;23.164;2023-05-02T08:41:20;-11650.84;;;-142.29;36.84
7748;BME280;3918;42.564;23.164;2023-05-02T08:43:47;-11650.84;;;-142.29;38.33
7748;BME280;3918;42.564;23.164;2023-05-02T08:46:15;-11650.84;;;-142.29;38.50
7748;BME280;3918;42.564;23.164;2023-05-02T08:48:43;-11650.84;;;-142.29;38.03
7748;BME280;3918;42.564;23.164;2023-05-02T08:51:13;-11650.84;;;-142.29;36.96
7748;BME280;3918;42.564;23.164;2023-05-02T08:53:43;-11650.84;;;-142.29;37.95
7748;BME280;3918;42.564;23.164;2023-05-02T08:56:11;-11650.84;;;-142.29;37.47
7748;BME280;3918;42.564;23.164;2023-05-02T08:58:39;-11650.84;;;-142.29;38.78
7748;BME280;3918;42.564;23.164;2023-05-02T09:01:09;-11650.84;;;-142.29;39.47
7748;BME280;3918;42.564;23.164;2023-05-02T09:03:39;-11650.84;;;-142.29;41.01
7748;BME280;3918;42.564;23.164;2023-05-02T09:06:09;-11650.84;;;-142.29;40.89
7748;BME280;3918;42.564;23.164;2023-05-02T09:08:37;-11650.84;;;-142.29;41.75
7748;BME280;3918;42.564;23.164;2023-05-02T09:11:07;-11650.84;;;-142.29;41.37
7748;BME280;3918;42.564;23.164;2023-05-02T09:13:35;-11650.84;;;-142.29;41.31
7748;BME280;3918;42.564;23.164;2023-05-02T09:16:03;-11650.84;;;-142.29;41.28
7748;BME280;3918;42.564;23.164;2023-05-02T09:18:33;-11650.84;;;-142.29;41.14
7748;BME280;3918;42.564;23.164;2023-05-02T09:21:03;-11650.84;;;-142.29;40.98
7748;BME280;3918;42.564;23.164;2023-05-02T09:23:37;-11650.84;;;-142.29;42.96
7748;BME280;3918;42.564;23.164;2023-05-02T09:26:15;-11650.84;;;-142.29;42.46
7748;BME280;3918;42.564;23.164;2023-05-02T09:28:43;-11650.84;;;-142.29;42.58
7748;BME280;3918;42.564;23.164;2023-05-02T09:31:11;-11650.84;;;-142.29;42.42
7748;BME280;3918;42.564;23.164;2023-05-02T09:33:39;-11650.84;;;-142.29;42.88
7748;BME280;3918;42.564;23.164;2023-05-02T09:36:06;-11650.84;;;-142.29;43.70
7748;BME280;3918;42.564;23.164;2023-05-02T09:38:34;-11650.84;;;-142.29;43.98
7748;BME280;3918;42.564;23.164;2023-05-02T09:41:01;-11650.84;;;-142.29;42.64
7748;BME280;3918;42.564;23.164;2023-05-02T09:43:30;-11650.84;;;-142.29;42.26
7748;BME280;3918;42.564;23.164;2023-05-02T09:45:59;-11650.84;;;-142.29;42.44
7748;BME280;3918;42.564;23.164;2023-05-02T09:48:27;-11650.84;;;-142.29;41.37
7748;BME280;3918;42.564;23.164;2023-05-02T09:50:55;-11650.84;;;-142.29;41.67
7748;BME280;3918;42.564;23.164;2023-05-02T09:53:24;-11650.84;;;-142.29;41.83
7748;BME280;3918;42.564;23.164;2023-05-02T09:56:02;-11650.84;;;-142.29;42.20
7748;BME280;3918;42.564;23.164;2023-05-02T09:58:30;-11650.84;;;-142.29;41.53
7748;BME280;3918;42.564;23.164;2023-05-02T10:00:58;-11650.84;;;-142.29;41.32
7748;BME280;3918;42.564;23.164;2023-05-02T10:03:26;-11650.84;;;-142.29;40.73
7748;BME280;3918;42.564;23.164;2023-05-02T10:05:55;-11650.84;;;-142.29;41.37
7748;BME280;3918;42.564;23.164;2023-05-02T10:08:24;-11650.84;;;-142.29;40.40
7748;BME280;3918;42.564;23.164;2023-05-02T10:10:54;-11650.84;;;-142.29;42.42
7748;BME280;3918;42.564;23.164;2023-05-02T10:13:22;-11650.84;;;-142.29;43.83
7748;BME280;3918;42.564;23.164;2023-05-02T10:15:58;-11650.84;;;-142.29;40.77
7748;BME280;3918;42.564;23.164;2023-05-02T10:18:27;-11650.84;;;-142.29;40.64
7748;BME280;3918;42.564;23.164;2023-05-02T10:20:59;-11650.84;;;-142.29;40.51
7748;BME280;3918;42.564;23.164;2023-05-02T10:23:28;-11650.84;;;-142.29;41.20
7748;BME280;3918;42.564;23.164;2023-05-02T10:25:56;-11650.84;;;-142.29;39.95
7748;BME280;3918;42.564;23.164;2023-05-02T10:28:24;-11650.84;;;-142.29;41.48
7748;BME280;3918;42.564;23.164;2023-05-02T10:30:52;-11650.84;;;-142.29;40.56
7748;BME280;3918;42.564;23.164;2023-05-02T10:33:21;-11650.84;;;-142.29;40.05
7748;BME280;3918;42.564;23.164;2023-05-02T10:35:49;-11650.84;;;-142.29;40.37
7748;BME280;3918;42.564;23.164;2023-05-02T10:38:18;-11650.84;;;-142.29;39.03
7748;BME280;3918;42.564;23.164;2023-05-02T10:40:55;-11650.84;;;-142.29;41.42
7748;BME280;3918;42.564;23.164;2023-05-02T10:43:25;-11650.84;;;-142.29;41.96
7748;BME280;3918;42.564;23.164;2023-05-02T10:45:53;-11650.84;;;-142.29;41.45
7748;BME280;3918;42.564;23.164;2023-05-02T10:48:23;-11650.84;;;-142.29;41.53
7748;BME280;3918;42.564;23.164;2023-05-02T10:50:52;-11650.84;;;-142.29;42.17
7748;BME280;3918;42.564;23.164;2023-05-02T10:53:31;-11650.84;;;-142.29;41.32
7748;BME280;3918;42.564;23.164;2023-05-02T10:56:10;-11650.84;;;-142.29;41.01
7748;BME280;3918;42.564;23.164;2023-05-02T10:58:37;-11650.84;;;-142.29;40.84
7748;BME280;3918;42.564;23.164;2023-05-02T11:01:31;-11650.84;;;-142.29;41.12
7748;BME280;3918;42.564;23.164;2023-05-02T11:04:01;-11650.84;;;-142.29;41.02
7748;BME280;3918;42.564;23.164;2023-05-02T11:06:29;-11650.84;;;-142.29;40.97
7748;BME280;3918;42.564;23.164;2023-05-02T11:09:31;-11650.84;;;-142.29;40.18
7748;BME280;3918;42.564;23.164;2023-05-02T11:11:59;-11650.84;;;-142.29;40.48
7748;BME280;3918;42.564;23.164;2023-05-02T11:14:43;-11650.84;;;-142.29;40.21
7748;BME280;3918;42.564;23.164;2023-05-02T11:17:11;-11650.84;;;-142.29;41.15
7748;BME280;3918;42.564;23.164;2023-05-02T11:25:53;-11650.84;;;-142.29;42.42
7748;BME280;3918;42.564;23.164;2023-05-02T11:28:43;-11650.84;;;-142.29;41.53
7748;BME280;3918;42.564;23.164;2023-05-02T11:34:29;-11650.84;;;-142.29;42.05
7748;BME280;3918;42.564;23.164;2023-05-02T11:37:10;-11650.84;;;-142.29;41.37
7748;BME280;3918;42.564;23.164;2023-05-02T11:39:37;-11650.84;;;-142.29;41.82
7748;BME280;3918;42.564;23.164;2023-05-02T11:42:05;-11650.84;;;-142.29;41.43
7748;BME280;3918;42.564;23.164;2023-05-02T11:44:32;-11650.84;;;-142.29;40.01
7748;BME280;3918;42.564;23.164;2023-05-02T11:47:00;-11650.84;;;-142.29;40.15
7748;BME280;3918;42.564;23.164;2023-05-02T11:49:27;-11650.84;;;-142.29;41.27
7748;BME280;3918;42.564;23.164;2023-05-02T11:51:55;-11650.84;;;-142.29;41.07
7748;BME280;3918;42.564;23.164;2023-05-02T11:54:24;-11650.84;;;-142.29;41.50
7748;BME280;3918;42.564;23.164;2023-05-02T11:56:51;-11650.84;;;-142.29;40.90
7748;BME280;3918;42.564;23.164;2023-05-02T11:59:19;-11650.84;;;-142.29;40.21
7748;BME280;3918;42.564;23.164;2023-05-02T12:01:47;-11650.84;;;-142.29;40.48
7748;BME280;3918;42.564;23.164;2023-05-02T12:04:14;-11650.84;;;-142.29;39.86
7748;BME280;3918;42.564;23.164;2023-05-02T12:06:55;-11650.84;;;-142.29;40.17
7748;BME280;3918;42.564;23.164;2023-05-02T12:09:22;-11650.84;;;-142.29;39.96
7748;BME280;3918;42.564;23.164;2023-05-02T12:11:51;-11650.84;;;-142.29;38.39
7748;BME280;3918;42.564;23.164;2023-05-02T12:14:26;-11650.84;;;-142.29;38.67
7748;BME280;3918;42.564;23.164;2023-05-02T12:16:54;-11650.84;;;-142.29;39.30
7748;BME280;3918;42.564;23.164;2023-05-02T12:19:21;-11650.84;;;-142.29;39.31
7748;BME280;3918;42.564;23.164;2023-05-02T12:21:49;-11650.84;;;-142.29;39.56
7748;BME280;3918;42.564;23.164;2023-05-02T12:24:16;-11650.84;;;-142.29;38.75
7748;BME280;3918;42.564;23.164;2023-05-02T12:26:43;-11650.84;;;-142.29;39.94
7748;BME280;3918;42.564;23.164;2023-05-02T12:29:10;-11650.84;;;-142.29;39.43
7748;BME280;3918;42.564;23.164;2023-05-02T12:31:38;-11650.84;;;-142.29;41.16
7748;BME280;3918;42.564;23.164;2023-05-02T12:34:05;-11650.84;;;-142.29;40.12
7748;BME280;3918;42.564;23.164;2023-05-02T12:36:32;-11650.84;;;-142.29;39.52
7748;BME280;3918;42.564;23.164;2023-05-02T12:39:00;-11650.84;;;-142.29;39.84
7748;BME280;3918;42.564;23.164;2023-05-02T12:41:32;-11650.84;;;-142.29;39.47
7748;BME280;3918;42.564;23.164;2023-05-02T12:43:59;-11650.84;;;-142.29;39.66
7748;BME280;3918;42.564;23.164;2023-05-02T12:46:26;-11650.84;;;-142.29;40.07
7748;BME280;3918;42.564;23.164;2023-05-02T12:49:03;-11650.84;;;-142.29;39.12
7748;BME280;3918;42.564;23.164;2023-05-02T12:51:30;-11650.84;;;-142.29;39.50
7748;BME280;3918;42.564;23.164;2023-05-02T12:53:58;-11650.84;;;-142.29;39.46
7748;BME280;3918;42.564;23.164;2023-05-02T12:56:25;-11650.84;;;-142.29;40.56
7748;BME280;3918;42.564;23.164;2023-05-02T12:58:57;-11650.84;;;-142.29;40.10
7748;BME280;3918;42.564;23.164;2023-05-02T13:01:25;-11650.84;;;-142.29;38.60
7748;BME280;3918;42.564;23.164;2023-05-02T13:03:52;-11650.84;;;-142.29;40.53
7748;BME280;3918;42.564;23.164;2023-05-02T13:06:20;-11650.84;;;-142.29;40.74
7748;BME280;3918;42.564;23.164;2023-05-02T13:08:47;-11650.84;;;-142.29;40.07
7748;BME280;3918;42.564;23.164;2023-05-02T13:11:15;-11650.84;;;-142.29;39.58
7748;BME280;3918;42.564;23.164;2023-05-02T13:13:42;-11650.84;;;-142.29;40.08
7748;BME280;3918;42.564;23.164;2023-05-02T13:16:09;-11650.84;;;-142.29;39.06
7748;BME280;3918;42.564;23.164;2023-05-02T13:18:36;-11650.84;;;-142.29;38.40
7748;BME280;3918;42.564;23.164;2023-05-02T13:21:03;-11650.84;;;-142.29;38.99
7748;BME280;3918;42.564;23.164;2023-05-02T13:23:31;-11650.84;;;-142.29;39.77
7748;BME280;3918;42.564;23.164;2023-05-02T13:25:58;-11650.84;;;-142.29;39.51
7748;BME280;3918;42.564;23.164;2023-05-02T13:28:25;-11650.84;;;-142.29;38.88
7748;BME280;3918;42.564;23.164;2023-05-02T13:30:54;-11650.84;;;-142.29;39.79
7748;BME280;3918;42.564;23.164;2023-05-02T13:33:21;-11650.84;;;-142.29;39.49
7748;BME280;3918;42.564;23.164;2023-05-02T13:35:48;-11650.84;;;-142.29;39.64
7748;BME280;3918;42.564;23.164;2023-05-02T13:38:15;-11650.84;;;-142.29;38.98
7748;BME280;3918;42.564;23.164;2023-05-02T13:40:43;-11650.84;;;-142.29;39.42
7748;BME280;3918;42.564;23.164;2023-05-02T13:43:10;-11650.84;;;-142.29;38.84
7748;BME280;3918;42.564;23.164;2023-05-02T13:45:37;-11650.84;;;-142.29;39.99
7748;BME280;3918;42.564;23.164;2023-05-02T13:48:04;-11650.84;;;-142.29;39.00
7748;BME280;3918;42.564;23.164;2023-05-02T13:50:31;-11650.84;;;-142.29;38.97
7748;BME280;3918;42.564;23.164;2023-05-02T13:53:01;-11650.84;;;-142.29;39.20
7748;BME280;3918;42.564;23.164;2023-05-02T13:55:28;-11650.84;;;-142.29;38.76
7748;BME280;3918;42.564;23.164;2023-05-02T13:57:56;-11650.84;;;-142.29;40.06
7748;BME280;3918;42.564;23.164;2023-05-02T14:00:23;-11650.84;;;-142.29;39.88
7748;BME280;3918;42.564;23.164;2023-05-02T14:02:52;-11650.84;;;-142.29;40.31
7748;BME280;3918;42.564;23.164;2023-05-02T14:05:19;-11650.84;;;-142.29;40.36
7748;BME280;3918;42.564;23.164;2023-05-02T14:07:46;-11650.84;;;-142.29;39.77
7748;BME280;3918;42.564;23.164;2023-05-02T14:10:13;-11650.84;;;-142.29;39.41
7748;BME280;3918;42.564;23.164;2023-05-02T14:12:40;-11650.84;;;-142.29;39.69
7748;BME280;3918;42.564;23.164;2023-05-02T14:15:09;-11650.84;;;-142.29;40.82
7748;BME280;3918;42.564;23.164;2023-05-02T14:17:36;-11650.84;;;-142.29;39.07
7748;BME280;3918;42.564;23.164;2023-05-02T14:20:03;-11650.84;;;-142.29;40.55
7748;BME280;3918;42.564;23.164;2023-05-02T14:22:31;-11650.84;;;-142.29;39.25
7748;BME280;3918;42.564;23.164;2023-05-02T14:24:58;-11650.84;;;-142.29;39.31
7748;BME280;3918;42.564;23.164;2023-05-02T14:27:25;-11650.84;;;-142.29;40.03
7748;BME280;3918;42.564;23.164;2023-05-02T14:29:52;-11650.84;;;-142.29;39.91
7748;BME280;3918;42.564;23.164;2023-05-02T14:32:20;-11650.84;;;-142.29;39.31
7748;BME280;3918;42.564;23.164;2023-05-02T14:34:47;-11650.84;;;-142.29;39.10
7748;BME280;3918;42.564;23.164;2023-05-02T14:37:14;-11650.84;;;-142.29;39.33
7748;BME280;3918;42.564;23.164;2023-05-02T14:39:41;-11650.84;;;-142.29;39.65
7748;BME280;3918;42.564;23.164;2023-05-02T14:42:10;-11650.84;;;-142.29;39.49
7748;BME280;3918;42.564;23.164;2023-05-02T14:44:37;-11650.84;;;-142.29;39.56
7748;BME280;3918;42.564;23.164;2023-05-02T14:47:03;-11650.84;;;-142.29;39.77
7748;BME280;3918;42.564;23.164;2023-05-02T14:49:32;-11650.84;;;-142.29;40.30
7748;BME280;3918;42.564;23.164;2023-05-02T14:51:59;-11650.84;;;-142.29;40.11
7748;BME280;3918;42.564;23.164;2023-05-02T14:54:26;-11650.84;;;-142.29;39.71
7748;BME280;3918;42.564;23.164;2023-05-02T14:56:53;-11650.84;;;-142.29;39.18
7748;BME280;3918;42.564;23.164;2023-05-02T14:59:21;-11650.84;;;-142.29;39.23
7748;BME280;3918;42.564;23.164;2023-05-02T15:01:48;-11650.84;;;-142.29;39.10
7748;BME280;3918;42.564;23.164;2023-05-02T15:04:17;-11650.84;;;-142.29;39.16
7748;BME280;3918;42.564;23.164;2023-05-02T15:06:45;-11650.84;;;-142.29;40.10
7748;BME280;3918;42.564;23.164;2023-05-02T15:09:12;-11650.84;;;-142.29;39.74
7748;BME280;3918;42.564;23.164;2023-05-02T15:11:40;-11650.84;;;-142.29;39.96
7748;BME280;3918;42.564;23.164;2023-05-02T15:14:07;-11650.84;;;-142.29;40.88
7748;BME280;3918;42.564;23.164;2023-05-02T15:16:34;-11650.84;;;-142.29;39.88
7748;BME280;3918;42.564;23.164;2023-05-02T15:19:01;-11650.84;;;-142.29;40.27
7748;BME280;3918;42.564;23.164;2023-05-02T15:21:28;-11650.84;;;-142.29;40.17
7748;BME280;3918;42.564;23.164;2023-05-02T15:23:56;-11650.84;;;-142.29;40.20
7748;BME280;3918;42.564;23.164;2023-05-02T15:26:23;-11650.84;;;-142.29;40.58
7748;BME280;3918;42.564;23.164;2023-05-02T15:28:50;-11650.84;;;-142.29;40.59
7748;BME280;3918;42.564;23.164;2023-05-02T15:31:17;-11650.84;;;-142.29;40.65
7748;BME280;3918;42.564;23.164;2023-05-02T15:33:43;-11650.84;;;-142.29;40.38
7748;BME280;3918;42.564;23.164;2023-05-02T15:36:10;-11650.84;;;-142.29;40.57
7748;BME280;3918;42.564;23.164;2023-05-02T15:38:38;-11650.84;;;-142.29;40.43
7748;BME280;3918;42.564;23.164;2023-05-02T15:41:09;-11650.84;;;-142.29;41.29
7748;BME280;3918;42.564;23.164;2023-05-02T15:43:36;-11650.84;;;-142.29;40.47
7748;BME280;3918;42.564;23.164;2023-05-02T15:46:03;-11650.84;;;-142.29;40.58
7748;BME280;3918;42.564;23.164;2023-05-02T15:48:31;-11650.84;;;-142.29;40.63
7748;BME280;3918;42.564;23.164;2023-05-02T15:50:59;-11650.84;;;-142.29;40.67
7748;BME280;3918;42.564;23.164;2023-05-02T15:53:27;-11650.84;;;-142.29;40.78
7748;BME280;3918;42.564;23.164;2023-05-02T15:55:53;-11650.84;;;-142.29;41.09
7748;BME280;3918;42.564;23.164;2023-05-02T15:58:22;-11650.84;;;-142.29;40.55
7748;BME280;3918;42.564;23.164;2023-05-02T16:00:49;-11650.84;;;-142.29;40.92
7748;BME280;3918;42.564;23.164;2023-05-02T16:03:16;-11650.84;;;-142.29;41.25
7748;BME280;3918;42.564;23.164;2023-05-02T16:05:43;-11650.84;;;-142.29;40.93
7748;BME280;3918;42.564;23.164;2023-05-02T16:08:10;-11650.84;;;-142.29;41.40
7748;BME280;3918;42.564;23.164;2023-05-02T16:10:37;-11650.84;;;-142.29;41.32
7748;BME280;3918;42.564;23.164;2023-05-02T16:13:04;-11650.84;;;-142.29;41.39
7748;BME280;3918;42.564;23.164;2023-05-02T16:15:32;-11650.84;;;-142.29;41.69
7748;BME280;3918;42.564;23.164;2023-05-02T16:17:59;-11650.84;;;-142.29;41.80
7748;BME280;3918;42.564;23.164;2023-05-02T16:20:26;-11650.84;;;-142.29;41.60
7748;BME280;3918;42.564;23.164;2023-05-02T16:22:53;-11650.84;;;-142.29;41.65
7748;BME280;3918;42.564;23.164;2023-05-02T16:25:20;-11650.84;;;-142.29;41.91
7748;BME280;3918;42.564;23.164;2023-05-02T16:27:47;-11650.84;;;-142.29;41.61
7748;BME280;3918;42.564;23.164;2023-05-02T16:30:14;-11650.84;;;-142.29;42.13
7748;BME280;3918;42.564;23.164;2023-05-02T16:32:42;-11650.84;;;-142.29;42.04
7748;BME280;3918;42.564;23.164;2023-05-02T16:35:09;-11650.84;;;-142.29;42.07
7748;BME280;3918;42.564;23.164;2023-05-02T16:37:38;-11650.84;;;-142.29;42.47
7748;BME280;3918;42.564;23.164;2023-05-02T16:40:07;-11650.84;;;-142.29;42.25
7748;BME280;3918;42.564;23.164;2023-05-02T16:42:34;-11650.84;;;-142.29;42.53
7748;BME280;3918;42.564;23.164;2023-05-02T16:45:02;-11650.84;;;-142.29;42.40
7748;BME280;3918;42.564;23.164;2023-05-02T16:47:29;-11650.84;;;-142.29;42.83
7748;BME280;3918;42.564;23.164;2023-05-02T16:49:57;-11650.84;;;-142.29;42.90
7748;BME280;3918;42.564;23.164;2023-05-02T16:52:26;-11650.84;;;-142.29;42.68
7748;BME280;3918;42.564;23.164;2023-05-02T16:54:53;-11650.84;;;-142.29;42.53